createdAt,value
2022-12-08T00:00:10.094Z,1.2
2022-12-08T00:05:10.088Z,1.1
2022-12-08T00:10:25.479Z,1.2
2022-12-08T00:15:10.103Z,1.1
2022-12-08T00:20:10.098Z,1.2
2022-12-08T00:25:10.110Z,1.1
2022-12-08T00:30:10.097Z,1.1
2022-12-08T00:35:10.101Z,1.1
2022-12-08T00:40:10.101Z,1.2
2022-12-08T00:45:10.099Z,1.2
2022-12-08T00:50:10.094Z,1.3
2022-12-08T00:55:10.087Z,1.3
2022-12-08T01:00:10.087Z,1.4
2022-12-08T01:05:10.091Z,1.3
2022-12-08T01:10:10.081Z,1.3
2022-12-08T01:15:10.100Z,1.3
2022-12-08T01:20:10.092Z,1.2
2022-12-08T01:25:10.084Z,1.2
2022-12-08T01:30:10.095Z,1.2
2022-12-08T01:35:10.102Z,1.2
2022-12-08T01:40:10.077Z,1.3
2022-12-08T01:45:10.088Z,1.3
2022-12-08T01:50:10.080Z,1.3
2022-12-08T01:55:10.085Z,1.3
2022-12-08T02:00:10.082Z,1.3
2022-12-08T02:05:10.090Z,1.3
2022-12-08T02:10:10.094Z,1.4
2022-12-08T02:15:10.101Z,1.4
2022-12-08T02:20:10.091Z,1.4
2022-12-08T02:25:10.102Z,1.4
2022-12-08T02:30:10.095Z,1.4
2022-12-08T02:35:10.101Z,1.4
2022-12-08T02:40:10.104Z,1.4
2022-12-08T02:45:10.093Z,1.4
2022-12-08T02:50:10.081Z,1.4
2022-12-08T02:55:10.087Z,1.4
2022-12-08T03:00:10.083Z,1.4
2022-12-08T03:05:10.100Z,1.4
2022-12-08T03:10:10.084Z,1.4
2022-12-08T03:15:10.086Z,1.4
2022-12-08T03:20:10.084Z,1.4
2022-12-08T03:25:10.088Z,1.4
2022-12-08T03:30:10.082Z,1.4
2022-12-08T03:35:10.085Z,1.4
2022-12-08T03:40:10.086Z,1.4
2022-12-08T03:45:10.091Z,1.4
2022-12-08T03:50:10.085Z,1.4
2022-12-08T03:55:10.093Z,1.4
2022-12-08T04:00:10.082Z,1.4
2022-12-08T04:05:10.090Z,1.4
2022-12-08T04:10:10.084Z,1.4
2022-12-08T04:15:10.088Z,1.5
2022-12-08T04:20:10.095Z,1.4
2022-12-08T04:25:10.125Z,1.4
2022-12-08T04:30:10.102Z,1.4
2022-12-08T04:35:10.162Z,1.4
2022-12-08T04:40:10.084Z,1.4
2022-12-08T04:45:10.164Z,1.3
2022-12-08T04:50:10.143Z,1.3
2022-12-08T04:55:10.085Z,1.3
2022-12-08T05:00:10.081Z,1.2
2022-12-08T05:05:10.086Z,1.2
2022-12-08T05:10:10.079Z,1.2
2022-12-08T05:15:10.086Z,1.2
2022-12-08T05:20:10.084Z,1.2
2022-12-08T05:25:10.096Z,1.2
2022-12-08T05:30:10.094Z,1.3
2022-12-08T05:35:10.097Z,1.3
2022-12-08T05:40:10.079Z,1.3
2022-12-08T05:45:10.100Z,1.3
2022-12-08T05:50:10.095Z,1.3
2022-12-08T05:55:10.094Z,1.3
2022-12-08T06:00:10.099Z,1.3
2022-12-08T06:05:10.083Z,1.3
2022-12-08T06:10:10.082Z,1.3
2022-12-08T06:15:10.091Z,1.3
2022-12-08T06:20:10.083Z,1.3
2022-12-08T06:25:10.429Z,1.2
2022-12-08T06:30:10.105Z,1.2
2022-12-08T06:35:10.095Z,1.2
2022-12-08T06:40:10.087Z,1.2
2022-12-08T06:45:10.091Z,1.2
2022-12-08T06:50:10.087Z,1.2
2022-12-08T06:55:10.092Z,1.2
2022-12-08T07:00:10.085Z,1.2
2022-12-08T07:05:10.088Z,1.2
2022-12-08T07:10:10.084Z,1.2
2022-12-08T07:15:10.092Z,1.2
2022-12-08T07:20:10.083Z,1.2
2022-12-08T07:25:10.087Z,1.1
2022-12-08T07:30:10.123Z,1.1
2022-12-08T07:35:10.120Z,1.2
2022-12-08T07:40:10.123Z,1.2
2022-12-08T07:45:10.089Z,1.2
2022-12-08T07:50:10.085Z,1.3
2022-12-08T07:55:10.088Z,1.3
2022-12-08T08:00:10.082Z,1.4
2022-12-08T08:05:10.206Z,1.4
2022-12-08T08:10:10.091Z,1.4
2022-12-08T08:15:10.096Z,1.4
2022-12-08T08:20:10.082Z,1.5
2022-12-08T08:25:10.101Z,1.5
2022-12-08T08:30:10.811Z,1.5
2022-12-08T08:35:10.093Z,1.5
2022-12-08T08:40:10.083Z,1.6
2022-12-08T08:45:10.093Z,1.6
2022-12-08T08:50:10.134Z,1.6
2022-12-08T08:55:10.108Z,1.6
2022-12-08T09:00:10.107Z,1.6
2022-12-08T09:05:10.171Z,1.7
2022-12-08T09:10:10.093Z,1.7
2022-12-08T09:15:10.090Z,1.8
2022-12-08T09:20:10.084Z,1.8
2022-12-08T09:25:10.089Z,1.7
2022-12-08T09:30:10.088Z,1.8
2022-12-08T09:35:10.103Z,1.8
2022-12-08T09:40:10.094Z,1.9
2022-12-08T09:45:10.099Z,1.9
2022-12-08T09:50:10.093Z,1.9
2022-12-08T09:55:10.101Z,1.9
2022-12-08T10:00:10.119Z,2
2022-12-08T10:05:10.144Z,2
2022-12-08T10:10:10.086Z,2
2022-12-08T10:15:10.088Z,2
2022-12-08T10:20:10.080Z,2.1
2022-12-08T10:25:10.088Z,2.1
2022-12-08T10:30:10.084Z,2
2022-12-08T10:35:10.103Z,2.1
2022-12-08T10:40:10.090Z,2.1
2022-12-08T10:45:10.091Z,2.2
2022-12-08T10:50:10.111Z,2.2
2022-12-08T10:55:10.099Z,2.2
2022-12-08T11:00:13.894Z,2.2
2022-12-08T11:05:10.086Z,2.3
2022-12-08T11:10:10.087Z,2.4
2022-12-08T11:15:10.093Z,2.4
2022-12-08T11:20:10.087Z,2.4
2022-12-08T11:25:10.092Z,2.4
2022-12-08T11:30:14.178Z,2.4
2022-12-08T11:35:10.090Z,2.4
2022-12-08T11:40:10.092Z,2.4
2022-12-08T11:45:10.094Z,2.4
2022-12-08T11:50:11.356Z,2.5
2022-12-08T11:55:10.093Z,2.5
2022-12-08T12:00:10.083Z,2.5
2022-12-08T12:05:10.091Z,2.5
2022-12-08T12:10:10.080Z,2.6
2022-12-08T12:15:10.101Z,2.7
2022-12-08T12:20:10.086Z,2.7
2022-12-08T12:25:10.091Z,2.7
2022-12-08T12:30:10.316Z,2.6
2022-12-08T12:35:10.089Z,2.6
2022-12-08T12:40:10.080Z,2.7
2022-12-08T12:45:10.089Z,2.7
2022-12-08T12:50:10.098Z,2.7
2022-12-08T12:55:10.090Z,2.7
2022-12-08T13:00:10.413Z,2.7
2022-12-08T13:05:10.088Z,2.7
2022-12-08T13:10:10.086Z,2.7
2022-12-08T13:15:10.091Z,2.7
2022-12-08T13:20:10.481Z,2.7
2022-12-08T13:25:10.089Z,2.7
2022-12-08T13:30:10.146Z,2.7
2022-12-08T13:35:10.103Z,2.7
2022-12-08T13:40:10.105Z,2.7
2022-12-08T13:45:48.973Z,2.7
2022-12-08T14:00:10.085Z,2.7
2022-12-08T14:05:18.927Z,2.7
2022-12-08T14:10:10.094Z,2.7
2022-12-08T14:15:10.088Z,2.8
2022-12-08T14:20:10.079Z,2.8
2022-12-08T14:25:10.274Z,2.8
2022-12-08T14:30:10.081Z,2.8
2022-12-08T14:35:10.092Z,2.8
2022-12-08T14:40:10.090Z,2.8
2022-12-08T14:45:10.099Z,2.8
2022-12-08T14:50:10.087Z,2.9
2022-12-08T14:55:10.101Z,2.9
2022-12-08T15:00:10.083Z,2.8
2022-12-08T15:05:10.135Z,2.8
2022-12-08T15:10:10.084Z,2.7
2022-12-08T15:15:10.106Z,2.7
2022-12-08T15:20:10.086Z,2.7
2022-12-08T15:25:10.096Z,2.6
2022-12-08T15:30:10.086Z,2.6
2022-12-08T15:35:10.107Z,2.5
2022-12-08T15:40:10.086Z,2.5
2022-12-08T15:45:10.102Z,2.4
2022-12-08T15:50:10.090Z,2.3
2022-12-08T15:55:10.095Z,2.1
2022-12-08T16:00:24.535Z,2
2022-12-08T16:05:40.747Z,1.9
2022-12-08T16:10:10.394Z,1.7
2022-12-08T16:20:10.269Z,1.4
2022-12-08T16:25:24.823Z,1.3
2022-12-08T16:30:10.083Z,1.2
2022-12-08T16:35:10.093Z,1.4
2022-12-08T16:40:10.223Z,1.5
2022-12-08T16:45:10.092Z,1.5
2022-12-08T16:50:10.089Z,1.4
2022-12-08T16:55:10.092Z,1.5
2022-12-08T17:00:10.084Z,1.6
2022-12-08T17:05:10.152Z,1.5
2022-12-08T17:10:10.087Z,1.5
2022-12-08T17:15:10.091Z,1.5
2022-12-08T17:20:10.104Z,1.4
2022-12-08T17:25:10.089Z,1.4
2022-12-08T17:30:10.103Z,1.3
2022-12-08T17:35:10.085Z,1.2
2022-12-08T17:40:10.087Z,1.1
2022-12-08T17:45:10.095Z,1
2022-12-08T17:50:10.084Z,1.1
2022-12-08T17:55:10.083Z,1.1
2022-12-08T18:00:10.081Z,1.2
2022-12-08T18:05:10.082Z,1.2
2022-12-08T18:10:10.081Z,1.2
2022-12-08T18:15:10.105Z,1.2
2022-12-08T18:20:10.097Z,1.2
2022-12-08T18:25:10.086Z,1.2
2022-12-08T18:30:10.088Z,1.2
2022-12-08T18:35:10.087Z,1.2
2022-12-08T18:40:10.080Z,1.2
2022-12-08T18:45:10.091Z,1.2
2022-12-08T18:50:10.087Z,1.2
2022-12-08T18:55:10.095Z,1.2
2022-12-08T19:00:10.089Z,1.2
2022-12-08T19:05:10.089Z,1.2
2022-12-08T19:10:10.336Z,1.2
2022-12-08T19:15:10.089Z,1.2
2022-12-08T19:20:10.154Z,1.2
2022-12-08T19:25:10.094Z,1.3
2022-12-08T19:30:10.176Z,1.3
2022-12-08T19:35:10.094Z,1.3
2022-12-08T19:40:10.081Z,1.2
2022-12-08T19:45:10.090Z,1.2
2022-12-08T19:50:10.087Z,1.2
2022-12-08T19:55:10.108Z,1.2
2022-12-08T20:00:10.342Z,1.2
2022-12-08T20:05:10.089Z,1.1
2022-12-08T20:10:10.086Z,1.1
2022-12-08T20:15:10.109Z,1.1
2022-12-08T20:20:10.445Z,1
2022-12-08T20:25:12.926Z,1
2022-12-08T20:30:15.180Z,1
2022-12-08T20:35:10.124Z,1
2022-12-08T20:40:10.112Z,1
2022-12-08T20:45:10.474Z,1
2022-12-08T20:50:10.610Z,1
2022-12-08T20:55:10.245Z,1
2022-12-08T21:00:10.454Z,1
2022-12-08T21:05:10.350Z,1.1
2022-12-08T21:10:10.589Z,1.1
2022-12-08T21:15:10.186Z,1.1
2022-12-08T21:20:10.665Z,0.9
2022-12-08T21:25:10.142Z,0.8
2022-12-08T21:30:10.683Z,0.7
2022-12-08T21:35:10.142Z,0.7
2022-12-08T21:40:10.434Z,0.7
2022-12-08T21:45:10.306Z,0.7
2022-12-08T21:50:10.524Z,0.7
2022-12-08T21:55:10.110Z,0.7
2022-12-08T22:00:10.455Z,0.7
2022-12-08T22:05:10.189Z,0.7
2022-12-08T22:10:10.619Z,0.7
2022-12-08T22:15:10.181Z,0.7
2022-12-08T22:20:10.453Z,0.7
2022-12-08T22:25:10.152Z,0.6
2022-12-08T22:30:10.732Z,0.6
2022-12-08T22:35:10.156Z,0.6
2022-12-08T22:40:10.376Z,0.6
2022-12-08T22:45:10.151Z,0.6
2022-12-08T22:50:10.648Z,0.6
2022-12-08T22:55:10.181Z,0.5
2022-12-08T23:00:10.674Z,0.5
2022-12-08T23:05:10.519Z,0.6
2022-12-08T23:10:10.727Z,0.6
2022-12-08T23:15:10.123Z,0.6
2022-12-08T23:20:10.639Z,0.6
2022-12-08T23:25:10.102Z,0.6
2022-12-08T23:30:10.683Z,0.6
2022-12-08T23:35:10.106Z,0.6
2022-12-08T23:40:10.672Z,0.6
2022-12-08T23:45:10.088Z,0.5
2022-12-08T23:50:10.530Z,0.5
2022-12-08T23:55:10.139Z,0.5
